createdAt,value
2018-08-20T00:04:01.803Z,101110.41
2018-08-20T00:09:05.503Z,101107.81
2018-08-20T00:14:07.673Z,101117.63
2018-08-20T00:19:13.297Z,101109.05
2018-08-20T00:24:15.455Z,101109.91
2018-08-20T00:29:17.599Z,101097.12
2018-08-20T00:34:19.818Z,101100.09
2018-08-20T00:39:21.927Z,101090.67
2018-08-20T00:44:24.056Z,101081.70
2018-08-20T00:49:26.162Z,101091.49
2018-08-20T00:54:28.341Z,101088.98
2018-08-20T00:59:30.490Z,101085.58
2018-08-20T01:04:32.638Z,101081.70
2018-08-20T01:09:34.731Z,101080.36
2018-08-20T01:14:36.833Z,101078.65
2018-08-20T01:19:38.973Z,101083.76
2018-08-20T01:24:41.145Z,101069.67
2018-08-20T01:29:43.498Z,101071.80
2018-08-20T01:34:45.873Z,101071.80
2018-08-20T01:39:48.655Z,101068.38
2018-08-20T01:44:50.762Z,101074.37
2018-08-20T01:49:52.891Z,101073.95
2018-08-20T01:54:55.006Z,101070.52
2018-08-20T01:59:57.193Z,101070.05
2018-08-20T02:04:59.337Z,101068.36
2018-08-20T02:10:01.503Z,101068.77
2018-08-20T02:15:04.159Z,101067.05
2018-08-20T02:20:06.356Z,101061.92
2018-08-20T02:25:08.489Z,101057.64
2018-08-20T02:30:10.603Z,101056.80
2018-08-20T02:35:12.758Z,101052.53
2018-08-20T02:40:16.329Z,101045.26
2018-08-20T02:45:19.006Z,101056.78
2018-08-20T02:50:21.185Z,101055.91
2018-08-20T02:55:23.317Z,101054.63
2018-08-20T03:00:25.506Z,101051.64
2018-08-20T03:05:27.664Z,101052.08
2018-08-20T03:10:29.820Z,101047.37
2018-08-20T03:15:31.934Z,101035.39
2018-08-20T03:20:34.043Z,101028.56
2018-08-20T03:25:36.195Z,101030.27
2018-08-20T03:30:38.364Z,101027.26
2018-08-20T03:35:40.528Z,101028.12
2018-08-20T03:40:42.666Z,101030.27
2018-08-20T03:45:44.809Z,101023.44
2018-08-20T03:50:46.975Z,101030.70
2018-08-20T03:55:49.091Z,101025.16
2018-08-20T04:00:51.271Z,101025.58
2018-08-20T04:05:53.430Z,101029.84
2018-08-20T04:10:55.556Z,101019.61
2018-08-20T04:15:57.694Z,101023.87
2018-08-20T04:20:59.848Z,101020.86
2018-08-20T04:26:02.127Z,101027.30
2018-08-20T04:31:04.275Z,101028.55
2018-08-20T04:36:06.455Z,101033.68
2018-08-20T04:41:08.582Z,101037.11
2018-08-20T04:46:10.683Z,101043.52
2018-08-20T04:51:13.043Z,101035.83
2018-08-20T04:56:15.045Z,101044.36
2018-08-20T05:01:17.268Z,101053.78
2018-08-20T05:06:19.410Z,101053.36
2018-08-20T05:11:21.540Z,101053.35
2018-08-20T05:16:23.656Z,101050.84
2018-08-20T05:21:25.808Z,101061.52
2018-08-20T05:26:27.940Z,101057.25
2018-08-20T05:31:30.060Z,101058.95
2018-08-20T05:36:32.241Z,101055.53
2018-08-20T05:41:34.442Z,101058.96
2018-08-20T05:46:36.571Z,101061.11
2018-08-20T05:51:38.747Z,101069.68
2018-08-20T05:56:40.897Z,101082.94
2018-08-20T06:01:43.128Z,101082.09
2018-08-20T06:06:45.262Z,101085.55
2018-08-20T06:11:47.397Z,101094.08
2018-08-20T06:16:49.567Z,101108.67
2018-08-20T06:21:51.703Z,101105.70
2018-08-20T06:26:53.869Z,101108.24
2018-08-20T06:36:57.860Z,101116.39
2018-08-20T06:42:00.011Z,101131.36
2018-08-20T06:47:02.124Z,101132.17
2018-08-20T06:52:04.317Z,101123.23
2018-08-20T06:57:06.524Z,101133.94
2018-08-20T07:02:08.683Z,101131.39
2018-08-20T07:07:10.822Z,101128.84
2018-08-20T07:12:12.967Z,101139.11
2018-08-20T07:17:15.118Z,101145.58
2018-08-20T07:22:17.284Z,101144.73
2018-08-20T07:27:19.437Z,101161.46
2018-08-20T07:32:21.606Z,101169.95
2018-08-20T07:37:23.820Z,101170.36
2018-08-20T07:42:25.992Z,101165.66
2018-08-20T07:47:28.163Z,101175.06
2018-08-20T07:52:30.331Z,101179.36
2018-08-20T07:57:32.614Z,101188.83
2018-08-20T08:02:34.799Z,101185.44
2018-08-20T08:07:37.066Z,101193.12
2018-08-20T08:12:39.226Z,101197.41
2018-08-20T08:17:42.581Z,101224.38
2018-08-20T08:22:44.730Z,101236.67
2018-08-20T08:27:46.878Z,101235.03
2018-08-20T08:32:49.042Z,101239.38
2018-08-20T08:37:51.211Z,101240.23
2018-08-20T08:42:53.777Z,101259.08
2018-08-20T08:47:55.943Z,101250.11
2018-08-20T08:52:58.109Z,101269.38
2018-08-20T08:58:00.286Z,101271.50
2018-08-20T09:03:02.469Z,101270.66
2018-08-20T09:08:04.651Z,101292.91
2018-08-20T09:13:06.810Z,101298.49
2018-08-20T09:18:08.943Z,101307.06
2018-08-20T09:23:11.126Z,101304.52
2018-08-20T09:28:13.305Z,101312.66
2018-08-20T09:33:15.517Z,101313.11
2018-08-20T09:38:17.799Z,101323.42
2018-08-20T09:43:19.902Z,101320.41
2018-08-20T09:48:22.094Z,101331.13
2018-08-20T09:53:24.289Z,101332.39
2018-08-20T09:58:26.506Z,101332.41
2018-08-20T10:03:28.695Z,101330.70
2018-08-20T10:08:30.922Z,101338.82
2018-08-20T10:13:33.099Z,101334.98
2018-08-20T10:18:35.478Z,101342.69
2018-08-20T10:23:37.746Z,101344.82
2018-08-20T10:28:39.924Z,101349.98
2018-08-20T10:33:42.404Z,101342.27
2018-08-20T10:38:44.584Z,101352.54
2018-08-20T10:43:46.668Z,101345.27
2018-08-20T10:48:49.159Z,101350.42
2018-08-20T10:53:51.471Z,101356.86
2018-08-20T10:58:53.622Z,101362.84
2018-08-20T11:03:56.862Z,101358.55
2018-08-20T11:08:59.375Z,101355.13
2018-08-20T11:14:01.526Z,101363.69
2018-08-20T11:19:03.788Z,101366.28
2018-08-20T11:24:05.975Z,101372.29
2018-08-20T11:29:08.139Z,101368.84
2018-08-20T11:34:10.319Z,101365.83
2018-08-20T11:39:12.524Z,101374.41
2018-08-20T11:44:14.885Z,101376.97
2018-08-20T11:49:17.128Z,101375.18
2018-08-20T11:54:19.228Z,101373.64
2018-08-20T11:59:21.389Z,101381.05
2018-08-20T12:04:23.932Z,101386.56
2018-08-20T12:09:26.076Z,101379.95
2018-08-20T12:14:28.259Z,101379.09
2018-08-20T12:19:30.401Z,101377.00
2018-08-20T12:24:32.560Z,101371.77
2018-08-20T12:29:34.759Z,101380.13
2018-08-20T12:34:36.921Z,101385.44
2018-08-20T12:39:39.119Z,101390.38
2018-08-20T12:44:41.300Z,101396.56
2018-08-20T12:49:43.467Z,101409.19
2018-08-20T12:54:45.642Z,101416.25
2018-08-20T12:59:51.655Z,101422.90
2018-08-20T13:04:53.775Z,101407.89
2018-08-20T13:09:55.895Z,101407.86
2018-08-20T13:14:58.080Z,101408.98
2018-08-20T13:20:00.228Z,101407.93
2018-08-20T13:25:02.586Z,101413.95
2018-08-20T13:30:06.208Z,101416.89
2018-08-20T13:35:08.631Z,101430.20
2018-08-20T13:40:10.928Z,101429.37
2018-08-20T13:45:13.071Z,101422.22
2018-08-20T13:50:15.495Z,101416.02
2018-08-20T13:55:17.639Z,101427.83
2018-08-20T14:00:20.710Z,101422.03
2018-08-20T14:05:22.844Z,101432.60
2018-08-20T14:10:25.011Z,101437.16
2018-08-20T14:15:27.277Z,101424.39
2018-08-20T14:20:29.467Z,101437.83
2018-08-20T14:25:31.613Z,101432.84
2018-08-20T14:30:33.818Z,101417.98
2018-08-20T14:35:35.966Z,101433.70
2018-08-20T14:40:38.164Z,101439.52
2018-08-20T14:45:45.975Z,101432.41
2018-08-20T14:50:48.162Z,101429.11
2018-08-20T14:55:50.345Z,101437.52
2018-08-20T15:00:52.549Z,101437.05
2018-08-20T15:05:54.742Z,101433.81
2018-08-20T15:10:56.937Z,101444.84
2018-08-20T15:15:59.215Z,101443.30
2018-08-20T15:21:01.368Z,101439.20
2018-08-20T15:26:03.565Z,101429.11
2018-08-20T15:31:05.717Z,101434.52
2018-08-20T15:36:07.915Z,101427.18
2018-08-20T15:41:10.248Z,101429.23
2018-08-20T15:46:12.500Z,101436.61
2018-08-20T15:51:14.894Z,101444.44
2018-08-20T15:56:17.054Z,101451.06
2018-08-20T16:01:19.266Z,101448.62
2018-08-20T16:06:21.545Z,101459.96
2018-08-20T16:11:24.491Z,101451.70
2018-08-20T16:16:26.655Z,101467.13
2018-08-20T16:21:28.838Z,101455.86
2018-08-20T16:26:30.975Z,101458.46
2018-08-20T16:31:33.130Z,101466.70
2018-08-20T16:36:35.345Z,101469.59
2018-08-20T16:41:37.756Z,101467.14
2018-08-20T16:46:39.960Z,101470.72
2018-08-20T16:51:42.119Z,101468.83
2018-08-20T16:56:44.394Z,101470.02
2018-08-20T17:01:47.349Z,101478.13
2018-08-20T17:06:49.625Z,101473.19
2018-08-20T17:11:51.850Z,101475.94
2018-08-20T17:16:54.031Z,101485.89
2018-08-20T17:21:56.233Z,101493.20
2018-08-20T17:27:00.316Z,101483.77
2018-08-20T17:32:03.965Z,101482.95
2018-08-20T17:37:06.351Z,101492.79
2018-08-20T17:42:08.583Z,101493.22
2018-08-20T17:47:15.362Z,101492.34
2018-08-20T17:52:17.589Z,101489.75
2018-08-20T17:57:19.818Z,101501.77
2018-08-20T18:02:22.704Z,101495.28
2018-08-20T18:07:24.931Z,101509.44
2018-08-20T18:12:27.077Z,101508.50
2018-08-20T18:17:29.339Z,101514.01
2018-08-20T18:22:31.441Z,101520.83
2018-08-20T18:27:38.168Z,101525.44
2018-08-20T18:32:40.946Z,101541.24
2018-08-20T18:37:50.342Z,101552.84
2018-08-20T18:42:52.899Z,101554.92
2018-08-20T18:47:55.144Z,101560.02
2018-08-20T18:52:57.413Z,101554.44
2018-08-20T18:57:59.692Z,101565.88
2018-08-20T19:03:04.256Z,101577.39
2018-08-20T19:08:11.321Z,101579.88
2018-08-20T19:13:13.493Z,101577.27
2018-08-20T19:18:22.108Z,101595.28
2018-08-20T19:23:24.363Z,101590.50
2018-08-20T19:28:26.574Z,101594.68
2018-08-20T19:33:29.773Z,101600.99
2018-08-20T19:38:31.977Z,101604.31
2018-08-20T19:44:05.192Z,101597.79
2018-08-20T19:49:09.264Z,101603.63
2018-08-20T19:54:13.514Z,101606.06
2018-08-20T19:59:23.223Z,101605.19
2018-08-20T20:04:25.515Z,101608.09
2018-08-20T20:09:27.725Z,101612.67
2018-08-20T20:14:34.543Z,101617.36
2018-08-20T20:19:36.745Z,101623.28
2018-08-20T20:24:39.025Z,101625.35
2018-08-20T20:29:41.271Z,101625.69
2018-08-20T20:34:43.521Z,101626.99
2018-08-20T20:39:53.286Z,101630.28
2018-08-20T20:44:55.895Z,101632.84
2018-08-20T20:49:58.057Z,101627.32
2018-08-20T20:55:00.259Z,101635.41
2018-08-20T21:00:02.810Z,101637.28
2018-08-20T21:05:08.948Z,101636.81
2018-08-20T21:10:11.166Z,101642.63
2018-08-20T21:15:13.310Z,101643.02
2018-08-20T21:20:15.519Z,101650.78
2018-08-20T21:25:17.745Z,101654.13
2018-08-20T21:30:19.934Z,101661.74
2018-08-20T21:35:22.104Z,101663.84
2018-08-20T21:40:29.587Z,101668.56
2018-08-20T21:45:31.804Z,101665.00
2018-08-20T21:50:34.020Z,101665.68
2018-08-20T21:55:36.203Z,101670.82
2018-08-20T22:00:38.421Z,101670.42
2018-08-20T22:05:40.582Z,101665.77
2018-08-20T22:10:42.779Z,101667.69
2018-08-20T22:15:50.575Z,101680.50
2018-08-20T22:20:52.770Z,101677.16
2018-08-20T22:25:56.779Z,101676.73
2018-08-20T22:30:58.973Z,101673.70
2018-08-20T22:36:01.195Z,101681.38
2018-08-20T22:41:03.326Z,101674.50
2018-08-20T22:46:05.671Z,101683.91
2018-08-20T22:51:16.244Z,101691.06
2018-08-20T22:56:21.348Z,101322.56
2018-08-20T23:01:23.490Z,101687.98
2018-08-20T23:06:25.779Z,101686.64
2018-08-20T23:11:38.507Z,101685.14
2018-08-20T23:16:40.875Z,101686.31
2018-08-20T23:21:44.117Z,101679.73
2018-08-20T23:26:46.258Z,101689.89
2018-08-20T23:31:48.415Z,101690.55
2018-08-20T23:36:50.703Z,101688.77
2018-08-20T23:41:53.244Z,101697.55
2018-08-20T23:46:55.437Z,101698.66
2018-08-20T23:51:57.599Z,101707.80
2018-08-20T23:56:59.760Z,101705.48
